Time;durP1;ratioP1;P1;durP2;ratioP2;P2;SDS_P1;SDS_P2;PMS_P1;PMS_P2;Temp;Humidity;BMP_temperature;BMP_pressure;BME280_temperature;BME280_humidity;BME280_pressure;Samples;Min_cycle;Max_cycle;Signal;HPM_P1;HPM_P2
2022/11/15 00:00:08;;;;;;;21.07;18.00;;;12.40;99.90;;;;;;5005679;28;20514;-79
2022/11/15 00:02:33;;;;;;;19.20;17.20;;;12.30;99.90;;;;;;5000875;28;20698;-77
2022/11/15 00:04:59;;;;;;;22.10;18.00;;;12.50;99.90;;;;;;5001072;28;20182;-77
2022/11/15 00:07:25;;;;;;;20.00;17.50;;;12.50;99.90;;;;;;4999470;28;20163;-84
2022/11/15 00:09:50;;;;;;;21.47;19.10;;;12.50;99.90;;;;;;5006106;28;20167;-79
2022/11/15 00:12:16;;;;;;;23.77;18.40;;;12.40;99.90;;;;;;4975024;28;20547;-79
2022/11/15 00:14:45;;;;;;;23.23;17.40;;;12.40;99.90;;;;;;5001314;28;20253;-85
2022/11/15 00:17:11;;;;;;;22.60;19.00;;;12.40;99.90;;;;;;5001687;28;20241;-78
2022/11/15 00:19:37;;;;;;;21.67;18.23;;;12.50;99.90;;;;;;4999294;28;20635;-79
2022/11/15 00:22:02;;;;;;;20.70;17.53;;;12.40;99.90;;;;;;4999639;28;20206;-82
2022/11/15 00:24:31;;;;;;;20.73;18.60;;;12.40;99.90;;;;;;5001978;28;20206;-79
2022/11/15 00:26:56;;;;;;;20.43;18.33;;;12.30;99.90;;;;;;4997419;28;20167;-81
2022/11/15 00:29:22;;;;;;;21.40;18.43;;;12.30;99.90;;;;;;4997405;28;20181;-78
2022/11/15 00:31:48;;;;;;;21.63;18.70;;;12.40;99.90;;;;;;4997409;28;20174;-78
2022/11/15 00:34:14;;;;;;;19.93;17.93;;;12.40;99.90;;;;;;4999804;28;20247;-82
2022/11/15 00:36:40;;;;;;;21.90;18.37;;;12.40;99.90;;;;;;5000194;28;20639;-79
2022/11/15 00:39:05;;;;;;;20.80;18.60;;;12.50;99.90;;;;;;4999507;28;20250;-81
2022/11/15 00:41:31;;;;;;;21.93;19.57;;;12.50;99.90;;;;;;4998319;28;20643;-88
2022/11/15 00:43:57;;;;;;;23.67;19.23;;;12.50;99.90;;;;;;5016869;28;20209;-80
2022/11/15 00:46:24;;;;;;;22.73;19.10;;;12.50;99.90;;;;;;5016511;28;20168;-78
2022/11/15 00:48:50;;;;;;;20.50;18.30;;;12.50;99.90;;;;;;5019158;28;20171;-77
2022/11/15 00:51:15;;;;;;;21.23;19.03;;;12.50;99.90;;;;;;5007347;28;20225;-81
2022/11/15 00:53:47;;;;;;;25.53;19.80;;;12.50;99.90;;;;;;5000798;28;20279;-81
2022/11/15 00:56:12;;;;;;;25.07;19.70;;;12.50;99.90;;;;;;4999069;28;20214;-79
2022/11/15 00:58:38;;;;;;;20.60;18.40;;;12.60;99.90;;;;;;4999351;28;20186;-78
2022/11/15 01:01:13;;;;;;;20.73;18.60;;;12.60;99.90;;;;;;4995849;28;20632;-81
2022/11/15 01:03:40;;;;;;;25.73;20.17;;;12.50;99.90;;;;;;4995932;28;20281;-82
2022/11/15 01:06:07;;;;;;;22.93;19.83;;;12.60;99.90;;;;;;4997405;28;20178;-79
2022/11/15 01:08:33;;;;;;;24.87;20.33;;;12.60;99.90;;;;;;4998112;28;20559;-88
2022/11/15 01:11:04;;;;;;;23.33;19.80;;;12.50;99.90;;;;;;4999691;28;20170;-92
2022/11/15 01:13:32;;;;;;;23.13;19.83;;;12.60;99.90;;;;;;4999171;28;20212;-94
2022/11/15 01:15:58;;;;;;;26.10;21.30;;;12.60;99.90;;;;;;5010219;28;20231;-90
2022/11/15 01:18:24;;;;;;;24.70;20.07;;;12.60;99.90;;;;;;5014890;28;20224;-88
2022/11/15 01:20:50;;;;;;;23.50;20.80;;;12.60;99.90;;;;;;5004215;28;20167;-94
2022/11/15 01:23:15;;;;;;;28.00;21.20;;;12.60;99.90;;;;;;5005728;28;20212;-90
2022/11/15 01:25:41;;;;;;;25.30;20.70;;;12.60;99.90;;;;;;5004058;28;20166;-92
2022/11/15 01:28:07;;;;;;;26.97;20.83;;;12.70;99.90;;;;;;5006036;28;20718;-90
2022/11/15 01:30:33;;;;;;;26.90;20.50;;;12.80;99.90;;;;;;5005535;28;20271;-91
2022/11/15 01:32:58;;;;;;;25.50;20.90;;;12.70;99.90;;;;;;5004480;28;20244;-92
2022/11/15 01:35:24;;;;;;;22.87;20.47;;;12.70;99.90;;;;;;5006547;28;20180;-77
2022/11/15 01:37:50;;;;;;;22.80;20.37;;;12.80;99.90;;;;;;5008092;28;20168;-79
2022/11/15 01:40:15;;;;;;;23.13;20.67;;;12.80;99.90;;;;;;5000991;28;20568;-77
2022/11/15 01:42:41;;;;;;;24.83;19.77;;;12.80;99.90;;;;;;5018137;28;20200;-77
2022/11/15 01:45:13;;;;;;;22.87;19.47;;;12.80;99.90;;;;;;5014428;28;20170;-79
2022/11/15 01:47:44;;;;;;;21.83;19.47;;;13.00;99.90;;;;;;5016808;28;20193;-77
2022/11/15 01:50:15;;;;;;;23.43;18.83;;;12.70;99.90;;;;;;4998972;28;20239;-78
2022/11/15 01:52:41;;;;;;;20.97;18.67;;;12.80;99.90;;;;;;5004436;28;20232;-78
2022/11/15 01:55:24;;;;;;;23.80;17.70;;;12.70;99.90;;;;;;5012466;28;20163;-78
2022/11/15 01:57:54;;;;;;;21.37;18.00;;;12.70;99.90;;;;;;5011888;28;20204;-78
2022/11/15 02:00:20;;;;;;;21.67;17.70;;;12.90;99.90;;;;;;5009176;28;20174;-79
2022/11/15 02:02:46;;;;;;;21.30;17.57;;;12.80;99.90;;;;;;5005586;28;20210;-77
2022/11/15 02:05:12;;;;;;;19.90;16.97;;;12.70;99.90;;;;;;5005056;28;20171;-77
2022/11/15 02:07:38;;;;;;;21.63;16.87;;;12.70;99.90;;;;;;5009062;28;20275;-77
2022/11/15 02:10:10;;;;;;;17.27;15.47;;;12.80;99.90;;;;;;5010348;28;20215;-78
2022/11/15 02:12:36;;;;;;;18.67;15.17;;;12.80;99.90;;;;;;5011005;28;20167;-77
2022/11/15 02:15:06;;;;;;;19.60;15.73;;;12.80;99.90;;;;;;5004011;28;20166;-78
2022/11/15 02:17:53;;;;;;;19.60;16.13;;;12.80;99.90;;;;;;5003199;28;20188;-77
2022/11/15 02:20:31;;;;;;;19.13;15.57;;;12.90;99.90;;;;;;5008602;28;20173;-77
2022/11/15 02:23:05;;;;;;;17.83;15.47;;;12.80;99.90;;;;;;5006022;28;20222;-77
2022/11/15 02:25:47;;;;;;;17.47;15.03;;;12.80;99.90;;;;;;5003810;28;20171;-77
2022/11/15 02:28:30;;;;;;;18.90;14.70;;;12.90;99.90;;;;;;5008542;28;20171;-78
2022/11/15 02:30:59;;;;;;;16.67;14.80;;;12.80;99.90;;;;;;5002142;28;20177;-78
2022/11/15 02:33:32;;;;;;;17.33;14.43;;;12.80;99.90;;;;;;4997104;28;20170;-78
2022/11/15 02:36:05;;;;;;;17.83;14.53;;;12.70;99.90;;;;;;4995796;28;20208;-77
2022/11/15 02:38:43;;;;;;;19.10;15.37;;;12.70;99.90;;;;;;4997238;28;20173;-86
2022/11/15 02:41:23;;;;;;;17.40;14.40;;;12.70;99.90;;;;;;5001028;28;20235;-78
2022/11/15 02:44:05;;;;;;;17.57;14.67;;;12.70;99.90;;;;;;4999665;28;20681;-82
2022/11/15 02:49:47;;;;;;;15.30;13.70;;;12.70;99.90;;;;;;4992666;28;20183;-79
2022/11/15 02:52:16;;;;;;;15.63;13.97;;;12.60;99.90;;;;;;4994244;28;20225;-81
2022/11/15 02:54:43;;;;;;;16.33;13.73;;;12.60;99.90;;;;;;4994630;28;20215;-78
2022/11/15 02:57:18;;;;;;;16.47;14.17;;;12.70;99.90;;;;;;4995210;28;20171;-77
2022/11/15 02:59:51;;;;;;;16.87;14.23;;;12.60;99.90;;;;;;4994071;28;20199;-77
2022/11/15 03:02:20;;;;;;;17.17;13.60;;;12.70;99.90;;;;;;4999807;28;20233;-77
2022/11/15 03:05:12;;;;;;;17.10;14.00;;;12.60;99.90;;;;;;5004986;28;20209;-77
2022/11/15 03:07:46;;;;;;;16.13;13.23;;;12.60;99.90;;;;;;5004538;28;20173;-77
2022/11/15 03:10:37;;;;;;;14.37;12.50;;;12.60;99.90;;;;;;5006022;28;20178;-77
2022/11/15 03:13:18;;;;;;;15.47;12.67;;;12.60;99.90;;;;;;4999882;28;20172;-80
2022/11/15 03:16:03;;;;;;;14.37;11.30;;;12.60;99.90;;;;;;4997770;28;20291;-85
2022/11/15 03:18:40;;;;;;;14.10;10.80;;;12.70;99.90;;;;;;5004177;28;20172;-84
2022/11/15 03:21:08;;;;;;;12.50;10.33;;;12.70;99.90;;;;;;4999197;28;20180;-88
2022/11/15 03:23:38;;;;;;;14.87;10.27;;;12.60;99.90;;;;;;5002883;28;20198;-85
2022/11/15 03:26:08;;;;;;;16.17;11.33;;;12.50;99.90;;;;;;5015324;28;20155;-78
2022/11/15 03:28:51;;;;;;;14.13;11.00;;;12.50;99.90;;;;;;5015489;28;20238;-79
2022/11/15 03:34:07;;;;;;;13.43;9.53;;;12.60;99.90;;;;;;5003416;28;20257;-88
2022/11/15 03:36:34;;;;;;;11.20;8.67;;;12.60;99.90;;;;;;4996828;28;20183;-79
2022/11/15 03:39:03;;;;;;;12.20;8.47;;;12.50;99.90;;;;;;4996743;28;20175;-92
2022/11/15 03:41:47;;;;;;;9.47;8.20;;;12.40;99.90;;;;;;4997045;28;20179;-91
2022/11/15 03:44:35;;;;;;;10.37;8.77;;;12.50;99.90;;;;;;5001052;28;20559;-90
2022/11/15 03:47:10;;;;;;;12.97;8.50;;;12.60;99.90;;;;;;5008948;28;20172;-85
2022/11/15 03:49:40;;;;;;;11.80;9.40;;;12.50;99.90;;;;;;5001970;28;20174;-92
2022/11/15 03:52:06;;;;;;;10.67;8.00;;;12.50;99.90;;;;;;4998010;28;20658;-93
2022/11/15 03:54:32;;;;;;;12.73;9.10;;;12.40;99.90;;;;;;5000107;28;20179;-91
2022/11/15 03:56:58;;;;;;;10.67;8.00;;;12.40;99.90;;;;;;5018451;28;20166;-82
2022/11/15 03:59:23;;;;;;;11.70;7.83;;;12.40;99.90;;;;;;5018096;28;20215;-80
2022/11/15 04:01:49;;;;;;;12.03;8.70;;;12.30;99.90;;;;;;5017894;28;20229;-82
2022/11/15 04:04:18;;;;;;;11.63;8.03;;;12.50;99.90;;;;;;5018359;28;20219;-79
2022/11/15 04:06:44;;;;;;;12.70;7.80;;;12.30;99.90;;;;;;5018092;28;20160;-77
2022/11/15 04:09:09;;;;;;;13.03;8.60;;;12.20;99.90;;;;;;5018243;28;20170;-79
2022/11/15 04:11:36;;;;;;;11.30;8.00;;;12.20;99.90;;;;;;5016038;28;20171;-78
2022/11/15 04:14:03;;;;;;;11.17;8.80;;;12.30;99.90;;;;;;5012874;28;20195;-77
2022/11/15 04:16:30;;;;;;;9.87;7.30;;;12.30;99.90;;;;;;5002987;28;20175;-80
2022/11/15 04:24:25;;;;;;;11.50;7.10;;;12.30;99.90;;;;;;4998645;28;20264;-87
2022/11/15 04:26:50;;;;;;;10.97;7.27;;;12.20;99.90;;;;;;4999421;28;20183;-89
2022/11/15 04:29:34;;;;;;;8.10;6.67;;;12.20;99.90;;;;;;5003303;28;20167;-89
2022/11/15 04:32:01;;;;;;;10.20;7.00;;;12.20;99.90;;;;;;5001589;28;20162;-88
2022/11/15 04:34:27;;;;;;;10.50;6.83;;;12.30;99.90;;;;;;4999634;28;20182;-94
2022/11/15 04:39:37;;;;;;;8.93;5.80;;;12.30;99.90;;;;;;5002999;28;20205;-89
2022/11/15 04:42:22;;;;;;;10.97;7.17;;;12.30;99.90;;;;;;5017968;28;20195;-81
2022/11/15 04:44:48;;;;;;;10.87;6.87;;;12.20;99.90;;;;;;5018607;28;20236;-77
2022/11/15 04:47:14;;;;;;;10.50;6.30;;;12.20;99.90;;;;;;5018291;28;20171;-78
2022/11/15 04:49:40;;;;;;;8.37;6.50;;;12.10;99.90;;;;;;5017257;28;20172;-80
2022/11/15 04:52:06;;;;;;;10.33;7.00;;;12.10;99.90;;;;;;5014809;28;20187;-82
2022/11/15 04:54:31;;;;;;;9.30;6.10;;;12.20;99.90;;;;;;5008688;28;20225;-89
2022/11/15 04:56:57;;;;;;;8.33;6.43;;;12.20;99.90;;;;;;4999872;28;20199;-90
2022/11/15 04:59:23;;;;;;;8.77;6.50;;;12.10;99.90;;;;;;5009567;28;20240;-78
2022/11/15 05:01:48;;;;;;;8.93;6.80;;;12.10;99.90;;;;;;5017904;28;20191;-80
2022/11/15 05:04:19;;;;;;;10.33;5.90;;;12.10;99.90;;;;;;5016193;28;20229;-77
2022/11/15 05:06:54;;;;;;;11.97;6.73;;;12.00;99.90;;;;;;5007920;28;20167;-90
2022/11/15 05:09:20;;;;;;;11.00;6.17;;;12.10;99.90;;;;;;5010871;28;20175;-83
2022/11/15 05:11:47;;;;;;;7.73;5.47;;;12.10;99.90;;;;;;5011509;28;20195;-88
2022/11/15 05:14:14;;;;;;;8.83;5.23;;;11.90;99.90;;;;;;4999829;28;20179;-88
2022/11/15 05:16:43;;;;;;;9.13;5.97;;;11.90;99.90;;;;;;5005770;28;20752;-88
2022/11/15 05:19:09;;;;;;;12.73;6.60;;;11.80;99.90;;;;;;5008123;28;20202;-80
2022/11/15 05:21:35;;;;;;;7.37;5.37;;;11.80;99.90;;;;;;5007936;28;20167;-91
2022/11/15 05:24:02;;;;;;;10.27;5.37;;;11.80;99.90;;;;;;5008782;28;20238;-87
2022/11/15 05:26:28;;;;;;;8.33;5.70;;;11.80;99.90;;;;;;5013010;28;20167;-89
2022/11/15 05:28:58;;;;;;;10.03;5.37;;;11.90;99.90;;;;;;5012066;28;20182;-84
2022/11/15 05:31:25;;;;;;;6.77;4.93;;;11.80;99.90;;;;;;5009839;28;20239;-90
2022/11/15 05:33:51;;;;;;;9.40;5.43;;;11.70;99.90;;;;;;5012426;28;20175;-85
2022/11/15 05:36:40;;;;;;;10.23;5.60;;;11.80;99.90;;;;;;5009323;28;20247;-81
2022/11/15 05:39:07;;;;;;;8.03;4.33;;;11.60;99.90;;;;;;5016874;28;20231;-78
2022/11/15 05:41:38;;;;;;;8.23;5.40;;;11.50;99.90;;;;;;5012226;28;20243;-89
2022/11/15 05:44:07;;;;;;;8.63;4.90;;;11.60;99.90;;;;;;5003674;28;20234;-86
2022/11/15 05:46:34;;;;;;;9.77;4.83;;;11.50;99.90;;;;;;4999391;28;20181;-93
2022/11/15 05:49:01;;;;;;;7.70;4.97;;;11.60;99.90;;;;;;4998582;28;20171;-90
2022/11/15 05:51:29;;;;;;;8.83;4.73;;;11.40;99.90;;;;;;4996412;28;20272;-94
2022/11/15 05:54:09;;;;;;;7.33;4.83;;;11.40;99.90;;;;;;5012578;28;20181;-92
2022/11/15 05:56:55;;;;;;;8.40;4.63;;;11.40;99.90;;;;;;5011235;28;20179;-90
2022/11/15 06:00:00;;;;;;;9.43;4.77;;;11.50;99.90;;;;;;5014239;28;20230;-80
2022/11/15 06:02:31;;;;;;;8.03;4.87;;;11.30;99.90;;;;;;5016919;28;20210;-77
2022/11/15 06:05:05;;;;;;;8.90;4.47;;;11.30;99.90;;;;;;5012103;28;20222;-82
2022/11/15 06:07:52;;;;;;;10.00;5.20;;;11.30;99.90;;;;;;5011474;28;20213;-88
2022/11/15 06:10:18;;;;;;;10.27;4.93;;;11.30;99.90;;;;;;5014438;28;20195;-90
2022/11/15 06:12:55;;;;;;;11.73;5.53;;;11.20;99.90;;;;;;5015741;28;20213;-81
2022/11/15 06:15:23;;;;;;;8.40;4.93;;;11.20;99.90;;;;;;5015456;28;20151;-79
2022/11/15 06:18:02;;;;;;;8.43;4.53;;;11.20;99.90;;;;;;5017167;28;20198;-80
2022/11/15 06:20:47;;;;;;;11.70;4.93;;;11.10;99.90;;;;;;5017544;28;20199;-88
2022/11/15 06:23:13;;;;;;;11.73;5.10;;;11.10;99.90;;;;;;5016216;28;20262;-87
2022/11/15 06:25:39;;;;;;;11.90;4.93;;;11.10;99.90;;;;;;5015875;28;20151;-91
2022/11/15 06:28:29;;;;;;;13.63;4.80;;;11.10;99.90;;;;;;5018081;28;20178;-82
2022/11/15 06:31:17;;;;;;;10.17;4.63;;;11.10;99.90;;;;;;5015916;28;20201;-83
2022/11/15 06:33:49;;;;;;;12.80;4.80;;;11.10;99.90;;;;;;5015822;28;20179;-92
2022/11/15 06:36:16;;;;;;;10.40;5.07;;;11.10;99.90;;;;;;5011673;28;20246;-93
2022/11/15 06:38:43;;;;;;;15.30;5.13;;;11.10;99.90;;;;;;5012510;28;20628;-90
2022/11/15 06:41:11;;;;;;;12.57;4.87;;;10.90;99.90;;;;;;5016366;28;20175;-93
2022/11/15 06:43:51;;;;;;;12.57;4.93;;;11.00;99.90;;;;;;5012914;28;20210;-86
2022/11/15 06:46:24;;;;;;;15.67;5.50;;;11.10;99.90;;;;;;5015220;28;20201;-89
2022/11/15 06:48:54;;;;;;;19.13;5.53;;;11.00;99.90;;;;;;5007922;28;20226;-79
2022/11/15 06:51:20;;;;;;;15.87;4.90;;;11.00;99.90;;;;;;5003178;28;20198;-79
2022/11/15 06:53:46;;;;;;;18.80;5.23;;;11.00;99.90;;;;;;5007812;28;20171;-80
2022/11/15 06:56:13;;;;;;;12.40;4.73;;;11.10;99.90;;;;;;5006309;28;20190;-78
2022/11/15 06:58:39;;;;;;;9.63;4.50;;;11.00;99.90;;;;;;5005841;28;20241;-75
2022/11/15 07:01:40;;;;;;;10.27;4.17;;;10.90;99.90;;;;;;5001403;28;20187;-76
2022/11/15 07:04:07;;;;;;;10.77;4.43;;;10.90;99.90;;;;;;5002827;28;20245;-78
2022/11/15 07:06:47;;;;;;;12.23;4.50;;;10.80;99.90;;;;;;5006676;28;20194;-78
2022/11/15 07:09:14;;;;;;;10.07;4.10;;;10.80;99.90;;;;;;5004551;28;20200;-77
2022/11/15 07:11:40;;;;;;;9.87;4.50;;;10.80;99.90;;;;;;5015967;28;20159;-78
2022/11/15 07:14:08;;;;;;;6.10;4.10;;;10.70;99.90;;;;;;5014519;28;20668;-78
2022/11/15 07:16:33;;;;;;;8.33;3.83;;;10.80;99.90;;;;;;5005422;28;20186;-81
2022/11/15 07:19:03;;;;;;;8.93;4.40;;;10.80;99.90;;;;;;5005907;28;20179;-79
2022/11/15 07:21:35;;;;;;;7.87;3.73;;;10.80;99.90;;;;;;5002011;28;20247;-81
2022/11/15 07:24:03;;;;;;;5.90;3.97;;;10.80;99.90;;;;;;5000388;28;20206;-80
2022/11/15 07:26:31;;;;;;;9.13;4.47;;;10.80;99.90;;;;;;4998318;28;20174;-79
2022/11/15 07:28:57;;;;;;;5.53;3.77;;;10.80;99.90;;;;;;4998776;28;20261;-78
2022/11/15 07:31:22;;;;;;;5.60;4.10;;;10.80;99.90;;;;;;4996213;28;20568;-78
2022/11/15 07:33:48;;;;;;;7.67;4.00;;;10.90;99.90;;;;;;4996828;28;20662;-81
2022/11/15 07:36:15;;;;;;;6.93;4.07;;;10.80;99.90;;;;;;4997167;28;20190;-77
2022/11/15 07:38:41;;;;;;;8.13;3.87;;;11.00;99.90;;;;;;4995780;28;20173;-79
2022/11/15 07:41:07;;;;;;;10.33;4.47;;;10.80;99.90;;;;;;5001399;28;20191;-85
2022/11/15 07:43:33;;;;;;;9.37;4.27;;;10.90;99.90;;;;;;5016552;28;20193;-84
2022/11/15 07:46:24;;;;;;;6.43;4.00;;;10.80;99.90;;;;;;5014263;28;20173;-84
2022/11/15 07:48:50;;;;;;;6.00;3.93;;;10.80;99.90;;;;;;5009938;28;20179;-87
2022/11/15 07:51:24;;;;;;;7.97;4.87;;;11.00;99.90;;;;;;5011051;28;20195;-85
2022/11/15 07:53:51;;;;;;;10.67;4.10;;;10.80;99.90;;;;;;5008716;28;20245;-93
2022/11/15 07:56:20;;;;;;;8.97;4.63;;;10.80;99.90;;;;;;5003968;28;20175;-83
2022/11/15 07:58:48;;;;;;;8.57;4.03;;;10.90;99.90;;;;;;5014733;28;20301;-91
2022/11/15 08:01:14;;;;;;;8.20;4.87;;;10.90;99.90;;;;;;5013863;28;20648;-89
2022/11/15 08:03:40;;;;;;;6.37;3.97;;;11.10;99.90;;;;;;5007851;28;20257;-85
2022/11/15 08:06:06;;;;;;;9.57;4.83;;;10.90;99.90;;;;;;5004443;28;20175;-91
2022/11/15 08:08:33;;;;;;;6.53;4.17;;;11.00;99.90;;;;;;5005266;28;20175;-91
2022/11/15 08:11:01;;;;;;;6.50;3.80;;;11.10;99.90;;;;;;5004067;28;20175;-89
2022/11/15 08:13:30;;;;;;;8.03;4.17;;;11.20;99.90;;;;;;5005586;28;20167;-85
2022/11/15 08:16:00;;;;;;;8.30;4.50;;;11.20;99.90;;;;;;5003611;28;20175;-90
2022/11/15 08:18:26;;;;;;;6.10;3.77;;;11.40;99.90;;;;;;5003298;28;20179;-91
2022/11/15 08:20:52;;;;;;;6.00;3.43;;;11.50;99.90;;;;;;5001997;28;20172;-91
2022/11/15 08:23:18;;;;;;;5.20;2.73;;;11.50;99.90;;;;;;5003013;28;20207;-91
2022/11/15 08:25:44;;;;;;;6.30;3.27;;;11.50;99.90;;;;;;5001522;28;20175;-86
2022/11/15 08:28:10;;;;;;;8.80;3.37;;;11.50;99.90;;;;;;5002858;28;20171;-91
2022/11/15 08:30:42;;;;;;;6.67;2.93;;;11.40;99.70;;;;;;5001940;28;20179;-88
2022/11/15 08:33:12;;;;;;;7.27;3.37;;;11.60;99.80;;;;;;5014219;28;20171;-86
2022/11/15 08:35:38;;;;;;;4.77;3.10;;;11.60;99.50;;;;;;5016028;28;20174;-80
2022/11/15 08:38:05;;;;;;;8.53;4.43;;;11.70;98.80;;;;;;5019829;28;20175;-81
2022/11/15 08:40:30;;;;;;;12.80;3.13;;;11.80;97.80;;;;;;5019861;28;20183;-88
2022/11/15 08:42:58;;;;;;;6.33;2.73;;;11.90;96.50;;;;;;5015917;28;20198;-81
2022/11/15 08:45:24;;;;;;;7.77;2.87;;;11.90;95.20;;;;;;5018252;28;20199;-87
2022/11/15 08:47:50;;;;;;;7.53;2.63;;;11.80;94.80;;;;;;5015248;28;20632;-90
2022/11/15 08:50:16;;;;;;;7.43;2.70;;;11.80;94.30;;;;;;5010166;28;20229;-91
2022/11/15 08:52:42;;;;;;;6.30;2.40;;;11.80;94.70;;;;;;5010962;28;20254;-89
2022/11/15 08:55:08;;;;;;;5.87;2.40;;;11.90;93.80;;;;;;5012764;28;20671;-92
2022/11/15 08:57:35;;;;;;;5.33;2.30;;;11.70;93.20;;;;;;5014542;28;20225;-94
2022/11/15 09:00:02;;;;;;;5.50;2.50;;;11.70;94.00;;;;;;5014594;28;20182;-93
2022/11/15 09:02:28;;;;;;;6.00;2.10;;;11.70;93.80;;;;;;5004794;28;20187;-94
2022/11/15 09:04:54;;;;;;;5.33;2.40;;;11.70;93.80;;;;;;5007217;28;20278;-86
2022/11/15 09:07:20;;;;;;;8.70;2.50;;;11.80;93.90;;;;;;5005921;28;20187;-91
2022/11/15 09:09:46;;;;;;;8.23;3.03;;;11.90;92.90;;;;;;5011471;28;20305;-92
2022/11/15 09:12:12;;;;;;;10.80;3.97;;;12.20;92.10;;;;;;5009395;28;20175;-91
2022/11/15 09:14:38;;;;;;;8.73;3.10;;;12.10;91.20;;;;;;5006547;28;20679;-83
2022/11/15 09:17:08;;;;;;;8.53;3.20;;;12.10;90.60;;;;;;5010536;28;20167;-94
2022/11/15 09:19:37;;;;;;;8.80;2.33;;;12.00;90.20;;;;;;5015888;28;20191;-79
2022/11/15 09:22:06;;;;;;;8.40;2.60;;;12.00;90.30;;;;;;5020666;28;20182;-78
2022/11/15 09:24:32;;;;;;;9.93;2.70;;;12.20;89.40;;;;;;5020780;28;20194;-79
2022/11/15 09:26:59;;;;;;;5.07;2.17;;;12.20;85.60;;;;;;5022634;28;20275;-77
2022/11/15 09:29:26;;;;;;;8.37;2.67;;;12.30;83.50;;;;;;4998054;28;20709;-78
2022/11/15 09:31:59;;;;;;;6.13;2.23;;;12.40;80.80;;;;;;5000965;28;20194;-77
2022/11/15 09:34:26;;;;;;;9.20;2.50;;;12.50;78.80;;;;;;5001377;28;20172;-76
2022/11/15 09:36:58;;;;;;;4.00;2.17;;;12.70;77.30;;;;;;5000289;28;20695;-78
2022/11/15 09:39:24;;;;;;;6.63;2.03;;;12.70;74.30;;;;;;5002479;28;20192;-78
2022/11/15 09:42:26;;;;;;;5.20;2.03;;;12.80;72.80;;;;;;5001226;28;20164;-78
2022/11/15 09:45:23;;;;;;;6.00;2.27;;;12.80;70.20;;;;;;5000510;28;20286;-77
2022/11/15 09:48:25;;;;;;;7.80;2.60;;;13.00;68.10;;;;;;4999976;28;20622;-79
2022/11/15 09:50:59;;;;;;;5.33;2.33;;;13.00;64.50;;;;;;4997783;28;20648;-78
2022/11/15 09:53:56;;;;;;;7.13;2.53;;;13.10;63.10;;;;;;4998690;28;20190;-76
2022/11/15 09:56:29;;;;;;;5.77;2.60;;;13.10;61.20;;;;;;4988550;28;20184;-77
2022/11/15 09:59:24;;;;;;;10.77;2.57;;;13.10;60.50;;;;;;5000763;28;20181;-79
2022/11/15 10:02:08;;;;;;;8.20;2.30;;;13.20;59.50;;;;;;5000830;28;20199;-77
2022/11/15 10:04:42;;;;;;;9.20;2.43;;;13.10;57.60;;;;;;5005497;28;20204;-77
2022/11/15 10:07:37;;;;;;;6.40;2.10;;;13.40;57.10;;;;;;4978862;28;20190;-78
2022/11/15 10:10:42;;;;;;;6.80;2.50;;;13.20;56.30;;;;;;4977694;28;20661;-79
2022/11/15 10:13:22;;;;;;;8.87;2.30;;;13.00;57.10;;;;;;4979797;28;20176;-77
2022/11/15 10:15:53;;;;;;;8.10;2.90;;;12.90;59.20;;;;;;4971051;28;20190;-78
2022/11/15 10:18:59;;;;;;;5.87;2.10;;;12.90;60.60;;;;;;4981309;28;20211;-78
2022/11/15 10:21:52;;;;;;;8.43;2.40;;;13.00;60.90;;;;;;4995826;28;20221;-76
2022/11/15 10:24:30;;;;;;;5.33;2.40;;;13.00;59.30;;;;;;4949274;28;20246;-79
2022/11/15 10:27:08;;;;;;;9.60;2.80;;;13.00;58.00;;;;;;4979326;28;20186;-78
2022/11/15 10:29:35;;;;;;;5.93;2.17;;;13.50;57.30;;;;;;4997006;28;20178;-78
2022/11/15 10:32:35;;;;;;;7.40;1.90;;;13.40;52.80;;;;;;4998250;28;20176;-76
2022/11/15 10:35:26;;;;;;;7.37;2.83;;;13.40;52.10;;;;;;5006229;28;20182;-77
2022/11/15 10:38:22;;;;;;;8.03;2.90;;;13.40;52.30;;;;;;5004592;28;20267;-77
2022/11/15 10:40:47;;;;;;;6.90;2.67;;;13.60;49.20;;;;;;5005202;28;20183;-78
2022/11/15 10:43:26;;;;;;;4.77;2.10;;;13.60;46.70;;;;;;5002017;28;20206;-78
2022/11/15 10:46:21;;;;;;;7.00;2.30;;;13.60;47.40;;;;;;4982816;28;20560;-79
2022/11/15 10:49:19;;;;;;;9.10;2.80;;;13.80;46.50;;;;;;5013127;28;20187;-78
2022/11/15 10:51:47;;;;;;;11.10;3.70;;;13.80;43.50;;;;;;5008014;28;20234;-79
2022/11/15 10:54:30;;;;;;;7.97;3.67;;;13.80;41.80;;;;;;4997997;28;20255;-79
2022/11/15 10:57:00;;;;;;;7.43;2.20;;;13.70;41.00;;;;;;5012422;28;20575;-79
2022/11/15 10:59:32;;;;;;;12.13;2.87;;;13.80;41.60;;;;;;4998329;28;20556;-78
2022/11/15 11:02:27;;;;;;;9.80;2.10;;;13.70;43.60;;;;;;5003493;28;20193;-78
2022/11/15 11:04:54;;;;;;;7.13;2.57;;;13.60;42.50;;;;;;5016592;28;20201;-79
2022/11/15 11:07:23;;;;;;;6.27;2.27;;;13.50;46.30;;;;;;5017144;28;20187;-78
2022/11/15 11:09:59;;;;;;;7.80;2.40;;;13.60;46.40;;;;;;5017187;28;20174;-81
2022/11/15 11:12:33;;;;;;;6.33;1.90;;;13.70;45.50;;;;;;5017031;28;20181;-77
2022/11/15 11:15:06;;;;;;;8.40;2.33;;;13.80;43.80;;;;;;5016772;28;20165;-77
2022/11/15 11:17:41;;;;;;;8.43;3.37;;;13.80;41.60;;;;;;5017374;28;20147;-78
2022/11/15 11:20:29;;;;;;;9.73;2.90;;;13.90;41.70;;;;;;5015554;28;20174;-78
2022/11/15 11:23:14;;;;;;;8.40;2.70;;;13.80;41.50;;;;;;5014432;28;20202;-79
2022/11/15 11:26:08;;;;;;;4.40;1.77;;;13.80;42.30;;;;;;5015758;28;20163;-79
2022/11/15 11:29:25;;;;;;;6.03;2.23;;;13.70;40.50;;;;;;5017462;28;20204;-81
2022/11/15 11:32:33;;;;;;;9.77;2.40;;;13.70;41.20;;;;;;5019306;28;20199;-79
2022/11/15 11:35:37;;;;;;;9.13;2.73;;;13.80;38.80;;;;;;5020563;28;20167;-78
2022/11/15 11:38:37;;;;;;;7.13;2.10;;;13.90;38.50;;;;;;5019692;28;20153;-91
2022/11/15 11:41:53;;;;;;;7.13;2.50;;;14.00;37.10;;;;;;5021499;28;20209;-78
2022/11/15 11:44:34;;;;;;;7.50;2.03;;;14.10;34.70;;;;;;5021711;28;20201;-78
2022/11/15 11:47:00;;;;;;;7.57;2.13;;;14.10;8.50;;;;;;5020536;28;20178;-78
2022/11/15 11:49:48;;;;;;;7.07;2.30;;;14.10;8.80;;;;;;5022090;28;20170;-80
2022/11/15 11:52:19;;;;;;;6.57;2.30;;;14.20;6.50;;;;;;5020486;28;20214;-79
2022/11/15 11:54:54;;;;;;;6.80;2.10;;;14.20;5.60;;;;;;5022013;28;20155;-77
2022/11/15 11:58:02;;;;;;;8.00;2.13;;;14.20;7.90;;;;;;5054464;28;20194;-79
2022/11/15 12:01:06;;;;;;;6.83;3.07;;;14.30;7.40;;;;;;5007367;28;20177;-77
2022/11/15 12:04:04;;;;;;;7.87;2.57;;;14.20;7.40;;;;;;5021515;28;20207;-82
2022/11/15 12:06:45;;;;;;;7.07;1.90;;;14.00;12.00;;;;;;5020889;28;20185;-88
2022/11/15 12:09:26;;;;;;;5.57;2.07;;;14.00;16.30;;;;;;5019477;28;20167;-78
2022/11/15 12:12:18;;;;;;;8.37;2.80;;;14.10;15.20;;;;;;5017439;28;20164;-78
2022/11/15 12:15:09;;;;;;;6.80;2.17;;;14.10;16.30;;;;;;5005306;28;20178;-78
2022/11/15 12:17:39;;;;;;;5.67;2.43;;;14.10;16.00;;;;;;5031989;28;20170;-78
2022/11/15 12:20:25;;;;;;;5.60;2.13;;;14.10;18.80;;;;;;5010877;28;20183;-79
2022/11/15 12:23:08;;;;;;;6.43;2.50;;;14.20;17.00;;;;;;5016773;28;20182;-78
2022/11/15 12:26:08;;;;;;;6.47;2.30;;;14.20;16.90;;;;;;5014895;28;20198;-77
2022/11/15 12:28:59;;;;;;;6.87;2.90;;;14.10;20.40;;;;;;5013638;28;20178;-79
2022/11/15 12:31:38;;;;;;;8.10;2.70;;;14.20;22.40;;;;;;5013006;28;20201;-79
2022/11/15 12:34:55;;;;;;;8.30;3.27;;;14.30;19.90;;;;;;5012362;28;20230;-78
2022/11/15 12:37:35;;;;;;;6.23;3.10;;;14.40;17.50;;;;;;4995673;28;20193;-77
2022/11/15 12:40:25;;;;;;;9.27;3.57;;;14.30;21.20;;;;;;5007841;28;20171;-77
2022/11/15 12:43:29;;;;;;;9.83;3.23;;;14.30;22.80;;;;;;5004226;28;20214;-80
2022/11/15 12:46:04;;;;;;;8.93;5.37;;;14.30;24.40;;;;;;5006668;28;20759;-77
2022/11/15 12:48:36;;;;;;;7.60;2.90;;;14.30;24.60;;;;;;5007073;28;20189;-79
2022/11/15 12:51:02;;;;;;;8.37;2.50;;;14.30;23.50;;;;;;5005504;28;20209;-79
2022/11/15 12:53:32;;;;;;;8.13;3.00;;;14.20;24.10;;;;;;5000063;28;20159;-79
2022/11/15 12:56:05;;;;;;;7.27;2.43;;;14.40;23.30;;;;;;4998375;28;20186;-78
2022/11/15 12:58:43;;;;;;;9.00;2.53;;;14.50;22.80;;;;;;4999128;28;20166;-77
2022/11/15 13:01:35;;;;;;;5.87;2.00;;;14.60;21.80;;;;;;4999176;28;20213;-77
2022/11/15 13:04:20;;;;;;;5.70;2.53;;;14.50;23.50;;;;;;5004195;28;20674;-77
2022/11/15 13:06:56;;;;;;;7.23;2.67;;;14.70;23.50;;;;;;5001556;28;20177;-80
2022/11/15 13:09:37;;;;;;;5.67;1.93;;;14.50;25.90;;;;;;5000487;28;20171;-82
2022/11/15 13:12:13;;;;;;;8.57;2.20;;;14.50;26.50;;;;;;5000780;28;20631;-78
2022/11/15 13:14:47;;;;;;;7.67;2.17;;;14.50;25.80;;;;;;4999973;28;20174;-78
2022/11/15 13:17:19;;;;;;;5.30;2.07;;;14.50;26.20;;;;;;5002057;28;20182;-81
2022/11/15 13:19:59;;;;;;;5.00;2.17;;;14.60;25.60;;;;;;5006271;28;20179;-80
2022/11/15 13:25:41;;;;;;;8.27;2.67;;;14.80;22.70;;;;;;4999638;28;20608;-77
2022/11/15 13:28:15;;;;;;;9.43;2.13;;;14.80;21.90;;;;;;5001076;28;20235;-79
2022/11/15 13:30:54;;;;;;;6.87;2.53;;;14.80;22.10;;;;;;4999823;28;20617;-78